Time;durP1;ratioP1;P1;durP2;ratioP2;P2;SDS_P1;SDS_P2;PMS_P1;PMS_P2;Temp;Humidity;BMP_temperature;BMP_pressure;BME280_temperature;BME280_humidity;BME280_pressure;Samples;Min_cycle;Max_cycle;Signal;HPM_P1;HPM_P2
2023/03/05 00:01:41;;;;;;;1.60;1.10;;;5.90;99.90;;;;;;5028231;28;20223;-49
2023/03/05 00:04:14;;;;;;;1.13;0.75;;;5.90;99.90;;;;;;5030416;28;20219;-50
2023/03/05 00:06:42;;;;;;;1.70;1.10;;;5.90;99.90;;;;;;5028165;28;20219;-50
2023/03/05 00:09:11;;;;;;;1.35;1.05;;;5.90;99.90;;;;;;5028551;28;20581;-49
2023/03/05 00:11:40;;;;;;;2.05;1.40;;;5.90;99.90;;;;;;5028236;28;20235;-51
2023/03/05 00:14:11;;;;;;;1.45;0.95;;;5.90;99.90;;;;;;5029819;28;20198;-51
2023/03/05 00:16:40;;;;;;;2.20;0.98;;;6.00;99.90;;;;;;5029144;28;20223;-50
2023/03/05 00:19:10;;;;;;;2.67;1.10;;;5.90;99.90;;;;;;5042853;28;20299;-51
2023/03/05 00:21:40;;;;;;;1.70;1.20;;;5.90;99.90;;;;;;5026929;28;20874;-50
2023/03/05 00:24:12;;;;;;;1.30;1.10;;;5.90;99.90;;;;;;5026326;28;20479;-51
2023/03/05 00:26:41;;;;;;;1.85;0.90;;;5.90;99.90;;;;;;5027327;28;20215;-51
2023/03/05 00:29:14;;;;;;;2.15;1.30;;;5.90;99.90;;;;;;5008220;28;20199;-51
2023/03/05 00:31:46;;;;;;;1.10;0.98;;;5.90;99.90;;;;;;5024503;28;20624;-51
2023/03/05 00:34:17;;;;;;;3.47;1.00;;;5.90;99.90;;;;;;5028716;28;20201;-49
2023/03/05 00:36:49;;;;;;;1.83;0.80;;;5.90;99.90;;;;;;5027654;28;20271;-48
2023/03/05 00:39:19;;;;;;;5.40;2.45;;;5.90;99.90;;;;;;5027851;28;20291;-48
2023/03/05 00:41:48;;;;;;;1.55;1.05;;;5.90;99.90;;;;;;5011653;28;20257;-50
2023/03/05 00:44:18;;;;;;;1.58;1.15;;;5.90;99.90;;;;;;5026020;28;20203;-51
2023/03/05 00:46:50;;;;;;;1.63;0.80;;;5.90;99.90;;;;;;5028127;28;20234;-48
2023/03/05 00:49:19;;;;;;;2.25;1.20;;;5.90;99.90;;;;;;5030648;28;20310;-50
2023/03/05 00:51:48;;;;;;;2.08;1.33;;;6.00;99.90;;;;;;5028017;28;20236;-48
2023/03/05 00:54:18;;;;;;;1.55;0.70;;;5.90;99.90;;;;;;5012266;28;20193;-50
2023/03/05 00:56:47;;;;;;;1.23;0.77;;;5.90;99.90;;;;;;5028360;28;20227;-48
2023/03/05 00:59:17;;;;;;;1.10;0.68;;;6.00;99.90;;;;;;5028278;28;20292;-48
2023/03/05 01:01:46;;;;;;;1.20;1.00;;;5.90;99.90;;;;;;5031308;28;20312;-49
2023/03/05 01:04:15;;;;;;;1.95;1.17;;;5.90;99.90;;;;;;5041929;28;20199;-50
2023/03/05 01:06:45;;;;;;;1.83;1.00;;;5.90;99.90;;;;;;5039866;28;20274;-51
2023/03/05 01:09:14;;;;;;;0.90;0.73;;;5.90;99.90;;;;;;5057860;28;20210;-50
2023/03/05 01:11:42;;;;;;;2.20;1.10;;;5.90;99.90;;;;;;5041128;28;20283;-49
2023/03/05 01:14:11;;;;;;;0.90;0.77;;;5.90;99.90;;;;;;5039035;28;20208;-51
2023/03/05 01:16:41;;;;;;;2.10;1.30;;;6.00;99.90;;;;;;5041170;28;20206;-50
2023/03/05 01:19:11;;;;;;;2.13;1.00;;;6.00;99.90;;;;;;5040724;28;20217;-51
2023/03/05 01:21:40;;;;;;;1.20;1.10;;;5.90;99.90;;;;;;5040216;28;20226;-50
2023/03/05 01:24:09;;;;;;;1.05;0.80;;;6.00;99.90;;;;;;5039674;28;20282;-50
2023/03/05 01:26:38;;;;;;;1.77;1.60;;;5.90;99.90;;;;;;5039399;28;20227;-49
2023/03/05 01:29:06;;;;;;;1.17;0.80;;;6.00;99.90;;;;;;5017868;28;20288;-50
2023/03/05 01:31:35;;;;;;;1.30;0.80;;;6.00;99.90;;;;;;5026288;28;20228;-50
2023/03/05 01:34:06;;;;;;;0.93;0.70;;;6.00;99.90;;;;;;5027179;28;20205;-48
2023/03/05 01:36:35;;;;;;;1.63;0.75;;;5.90;99.90;;;;;;5001151;28;20216;-48
2023/03/05 01:39:04;;;;;;;1.60;1.08;;;5.90;99.90;;;;;;5005973;28;20183;-51
2023/03/05 01:41:33;;;;;;;1.45;0.75;;;6.00;99.90;;;;;;5002981;28;20215;-49
2023/03/05 01:44:02;;;;;;;1.38;0.80;;;6.00;99.90;;;;;;4997508;28;20294;-50
2023/03/05 01:46:34;;;;;;;1.13;0.77;;;6.00;99.90;;;;;;5001903;28;20252;-50
2023/03/05 01:49:19;;;;;;;1.00;0.70;;;6.00;99.90;;;;;;5006581;28;20191;-49
2023/03/05 01:52:00;;;;;;;1.25;0.70;;;6.00;99.90;;;;;;5023359;28;20325;-48
2023/03/05 01:54:33;;;;;;;1.05;0.52;;;5.90;99.90;;;;;;4999739;28;20215;-49
2023/03/05 01:57:08;;;;;;;1.75;0.95;;;6.00;99.90;;;;;;5002376;28;20338;-50
2023/03/05 01:59:39;;;;;;;1.42;0.85;;;6.00;99.90;;;;;;5018171;28;20222;-50
2023/03/05 02:02:08;;;;;;;2.03;0.95;;;6.00;99.90;;;;;;5002939;28;20274;-48
2023/03/05 02:04:43;;;;;;;1.40;0.98;;;6.00;99.90;;;;;;4985823;28;20204;-49
2023/03/05 02:07:13;;;;;;;1.80;1.10;;;5.90;99.90;;;;;;5005180;28;20211;-48
2023/03/05 02:09:42;;;;;;;1.10;0.70;;;5.90;99.90;;;;;;5002108;28;20198;-50
2023/03/05 02:12:13;;;;;;;2.05;0.80;;;5.90;99.90;;;;;;5001480;28;20589;-48
2023/03/05 02:14:45;;;;;;;1.30;0.68;;;6.00;99.90;;;;;;5002281;28;20198;-50
2023/03/05 02:17:14;;;;;;;1.08;0.70;;;6.00;99.90;;;;;;5003543;28;20215;-49
2023/03/05 02:19:50;;;;;;;1.35;1.00;;;6.00;99.90;;;;;;4999231;28;20203;-50
2023/03/05 02:22:23;;;;;;;1.58;0.90;;;6.00;99.90;;;;;;4988844;28;20229;-49
2023/03/05 02:24:52;;;;;;;0.88;0.60;;;6.00;99.90;;;;;;5001997;28;20194;-49
2023/03/05 02:27:26;;;;;;;0.90;0.60;;;6.00;99.90;;;;;;4999120;28;20763;-49
2023/03/05 02:29:54;;;;;;;1.95;0.77;;;5.90;99.90;;;;;;5005334;28;20207;-50
2023/03/05 02:32:23;;;;;;;1.20;0.73;;;5.90;99.90;;;;;;5008852;28;20325;-48
2023/03/05 02:34:52;;;;;;;1.27;0.65;;;6.00;99.90;;;;;;5010794;28;20207;-48
2023/03/05 02:37:22;;;;;;;2.53;0.90;;;6.00;99.90;;;;;;5005247;28;20222;-49
2023/03/05 02:39:52;;;;;;;2.05;0.77;;;6.00;99.90;;;;;;5007131;28;20199;-51
2023/03/05 02:42:21;;;;;;;1.30;0.80;;;6.00;99.90;;;;;;5008420;28;20318;-50
2023/03/05 02:44:50;;;;;;;0.93;0.88;;;6.00;99.90;;;;;;5007001;28;20212;-49
2023/03/05 02:47:18;;;;;;;1.90;0.77;;;6.00;99.90;;;;;;5009872;28;20284;-49
2023/03/05 02:49:47;;;;;;;1.27;0.80;;;6.00;99.90;;;;;;5005484;28;20232;-49
2023/03/05 02:52:16;;;;;;;1.55;1.00;;;6.00;99.90;;;;;;4993038;28;20221;-50
2023/03/05 02:54:46;;;;;;;2.15;0.85;;;5.90;99.90;;;;;;5006065;28;20191;-50
2023/03/05 02:57:15;;;;;;;2.10;0.80;;;6.00;99.90;;;;;;5009527;28;20759;-50
2023/03/05 02:59:43;;;;;;;2.00;0.90;;;6.00;99.90;;;;;;5009239;28;20661;-50
2023/03/05 03:02:12;;;;;;;2.58;0.70;;;6.00;99.90;;;;;;5004591;28;20215;-50
2023/03/05 03:04:41;;;;;;;1.42;0.80;;;6.00;99.90;;;;;;5005566;28;20664;-48
2023/03/05 03:07:10;;;;;;;1.23;0.75;;;6.00;99.90;;;;;;5008587;28;20302;-48
2023/03/05 03:09:39;;;;;;;0.98;0.65;;;6.00;99.90;;;;;;5007719;28;20664;-48
2023/03/05 03:12:10;;;;;;;1.20;0.60;;;6.00;99.90;;;;;;5005775;28;20221;-51
2023/03/05 03:14:41;;;;;;;1.55;0.70;;;6.00;99.90;;;;;;5007578;28;20264;-48
2023/03/05 03:17:12;;;;;;;1.80;1.10;;;5.90;99.90;;;;;;5005578;28;20211;-48
2023/03/05 03:19:40;;;;;;;0.80;0.70;;;6.00;99.90;;;;;;5005411;28;20200;-49
2023/03/05 03:22:11;;;;;;;1.15;0.70;;;6.00;99.90;;;;;;5004310;28;20228;-49
2023/03/05 03:24:42;;;;;;;1.60;0.60;;;5.90;99.90;;;;;;5007566;28;20210;-51
2023/03/05 03:27:12;;;;;;;1.17;0.65;;;6.00;99.90;;;;;;5025944;28;20217;-49
2023/03/05 03:29:40;;;;;;;0.95;0.80;;;5.90;99.90;;;;;;5029018;28;20190;-50
2023/03/05 03:32:09;;;;;;;1.95;0.70;;;6.00;99.90;;;;;;5028456;28;20217;-50
2023/03/05 03:34:38;;;;;;;1.25;0.80;;;5.90;99.90;;;;;;5020405;28;20559;-49
2023/03/05 03:37:07;;;;;;;1.75;0.90;;;6.00;99.90;;;;;;5027378;28;20225;-52
2023/03/05 03:39:36;;;;;;;1.27;0.70;;;6.00;99.90;;;;;;5028701;28;20241;-49
2023/03/05 03:42:05;;;;;;;1.45;0.60;;;6.00;99.90;;;;;;5027995;28;20244;-50
2023/03/05 03:44:35;;;;;;;3.17;1.10;;;6.00;99.90;;;;;;5042259;28;20194;-48
2023/03/05 03:47:04;;;;;;;2.72;0.90;;;5.90;99.90;;;;;;5028119;28;20219;-50
2023/03/05 03:49:32;;;;;;;1.45;1.00;;;6.00;99.90;;;;;;5041022;28;20473;-48
2023/03/05 03:52:01;;;;;;;2.35;0.85;;;6.00;99.90;;;;;;5027245;28;20223;-50
2023/03/05 03:54:30;;;;;;;1.40;0.98;;;6.00;99.90;;;;;;5027465;28;20224;-50
2023/03/05 03:56:59;;;;;;;1.90;0.98;;;5.90;99.90;;;;;;5027948;28;20226;-50
2023/03/05 03:59:28;;;;;;;1.65;0.98;;;6.00;99.90;;;;;;5028954;28;20609;-49
2023/03/05 04:01:58;;;;;;;1.50;0.88;;;5.90;99.90;;;;;;5027711;28;20739;-50
2023/03/05 04:04:29;;;;;;;1.58;0.85;;;6.00;99.90;;;;;;5031502;28;20202;-49
2023/03/05 04:06:57;;;;;;;2.58;0.70;;;6.00;99.90;;;;;;5031629;28;20618;-49
2023/03/05 04:09:26;;;;;;;3.45;0.85;;;6.00;99.90;;;;;;5028744;28;20194;-48
2023/03/05 04:11:55;;;;;;;2.75;0.82;;;6.00;99.90;;;;;;5027720;28;20237;-48
2023/03/05 04:14:25;;;;;;;1.30;0.80;;;6.00;99.90;;;;;;5027078;28;20190;-49
2023/03/05 04:16:54;;;;;;;1.45;0.88;;;5.90;99.90;;;;;;5027860;28;20669;-48
2023/03/05 04:19:24;;;;;;;3.05;0.90;;;5.90;99.90;;;;;;5027854;28;20227;-48
2023/03/05 04:21:52;;;;;;;1.73;0.68;;;5.90;99.90;;;;;;5027302;28;20270;-49
2023/03/05 04:24:21;;;;;;;3.45;0.88;;;5.90;99.90;;;;;;5027218;28;20198;-50
2023/03/05 04:26:49;;;;;;;1.70;0.85;;;5.90;99.90;;;;;;5027143;28;20234;-48
2023/03/05 04:29:18;;;;;;;1.30;0.70;;;5.90;99.90;;;;;;5026256;28;20194;-48
2023/03/05 04:31:47;;;;;;;1.02;0.73;;;6.00;99.90;;;;;;5026819;28;20222;-48
2023/03/05 04:34:16;;;;;;;1.20;0.80;;;5.90;99.90;;;;;;5027921;28;20200;-47
2023/03/05 04:36:46;;;;;;;1.10;0.60;;;5.90;99.90;;;;;;5026360;28;20276;-49
2023/03/05 04:39:15;;;;;;;1.23;0.73;;;5.90;99.90;;;;;;5027776;28;20667;-48
2023/03/05 04:41:44;;;;;;;1.27;0.73;;;5.90;99.90;;;;;;5026876;28;20707;-50
2023/03/05 04:44:12;;;;;;;1.10;0.55;;;5.90;99.90;;;;;;5026144;28;20569;-49
2023/03/05 04:46:41;;;;;;;2.30;0.82;;;6.00;99.90;;;;;;5026970;28;20228;-49
2023/03/05 04:49:10;;;;;;;1.00;0.73;;;6.00;99.90;;;;;;5011020;28;20203;-48
2023/03/05 04:51:38;;;;;;;1.73;0.93;;;5.90;99.90;;;;;;5026551;28;20620;-48
2023/03/05 04:54:08;;;;;;;1.73;0.68;;;5.90;99.90;;;;;;5022183;28;20241;-47
2023/03/05 04:56:37;;;;;;;1.23;0.77;;;6.00;99.90;;;;;;5026897;28;20219;-48
2023/03/05 04:59:06;;;;;;;1.17;0.85;;;5.90;99.90;;;;;;5025948;28;20212;-51
2023/03/05 05:01:34;;;;;;;1.60;0.75;;;6.00;99.90;;;;;;5031279;28;20222;-50
2023/03/05 05:04:03;;;;;;;2.60;0.80;;;6.00;99.90;;;;;;5027406;28;20615;-48
2023/03/05 05:06:33;;;;;;;1.92;0.80;;;5.90;99.90;;;;;;5010194;28;20300;-47
2023/03/05 05:09:02;;;;;;;1.23;0.70;;;5.90;99.90;;;;;;4985947;28;20198;-49
2023/03/05 05:11:32;;;;;;;2.65;0.80;;;5.90;99.90;;;;;;5001796;28;20257;-48
2023/03/05 05:14:02;;;;;;;2.25;0.82;;;5.90;99.90;;;;;;5006310;28;20722;-49
2023/03/05 05:16:30;;;;;;;1.60;0.70;;;6.00;99.90;;;;;;5019196;28;20722;-49
2023/03/05 05:18:59;;;;;;;1.52;0.80;;;5.90;99.90;;;;;;5026909;28;20252;-49
2023/03/05 05:21:28;;;;;;;1.38;0.73;;;5.90;99.90;;;;;;5028156;28;20704;-49
2023/03/05 05:23:56;;;;;;;2.25;1.05;;;5.90;99.90;;;;;;5026724;28;20282;-49
2023/03/05 05:26:25;;;;;;;1.25;0.50;;;5.90;99.90;;;;;;5026630;28;20236;-48
2023/03/05 05:28:55;;;;;;;1.58;0.80;;;6.00;99.90;;;;;;5025148;28;20203;-48
2023/03/05 05:31:24;;;;;;;1.10;0.70;;;5.90;99.90;;;;;;5028121;28;20308;-49
2023/03/05 05:33:53;;;;;;;1.67;0.90;;;5.90;99.90;;;;;;5026368;28;20213;-49
2023/03/05 05:36:22;;;;;;;1.42;0.70;;;5.90;99.90;;;;;;5026209;28;20222;-49
2023/03/05 05:38:50;;;;;;;2.35;1.27;;;6.00;99.90;;;;;;5026310;28;20213;-50
2023/03/05 05:41:20;;;;;;;1.25;0.70;;;5.90;99.90;;;;;;5028297;28;20222;-48
2023/03/05 05:43:49;;;;;;;2.85;0.70;;;5.90;99.90;;;;;;5019640;28;20221;-49
2023/03/05 05:46:20;;;;;;;1.50;0.70;;;6.00;99.90;;;;;;5011887;28;20990;-48
2023/03/05 05:48:49;;;;;;;1.30;0.90;;;6.00;99.90;;;;;;5006354;28;20463;-48
2023/03/05 05:51:21;;;;;;;1.10;0.85;;;5.90;99.90;;;;;;5023563;28;20215;-48
2023/03/05 05:53:50;;;;;;;1.40;0.80;;;6.00;99.90;;;;;;4989798;28;20663;-47
2023/03/05 05:56:19;;;;;;;0.90;0.60;;;5.90;99.90;;;;;;5022712;28;20224;-48
2023/03/05 05:58:48;;;;;;;2.00;0.80;;;5.90;99.90;;;;;;5022012;28;20194;-49
2023/03/05 06:01:22;;;;;;;1.45;0.73;;;5.90;99.90;;;;;;5007110;28;20693;-48
2023/03/05 06:03:50;;;;;;;0.85;0.65;;;6.00;99.90;;;;;;5039963;28;20553;-48
2023/03/05 06:06:21;;;;;;;1.30;0.80;;;5.90;99.90;;;;;;5026724;28;20582;-49
2023/03/05 06:08:50;;;;;;;3.65;0.80;;;5.90;99.90;;;;;;5009662;28;20199;-48
2023/03/05 06:11:19;;;;;;;1.15;0.93;;;5.90;99.90;;;;;;5030266;28;20229;-52
2023/03/05 06:13:49;;;;;;;1.92;1.00;;;6.00;99.90;;;;;;5029212;28;20305;-47
2023/03/05 06:16:22;;;;;;;0.95;0.73;;;5.90;99.90;;;;;;5029995;28;20236;-47
2023/03/05 06:18:51;;;;;;;1.20;0.52;;;5.90;99.90;;;;;;5030823;28;20201;-50
2023/03/05 06:21:22;;;;;;;1.80;0.75;;;5.90;99.90;;;;;;5030017;28;20610;-48
2023/03/05 06:23:51;;;;;;;1.27;0.95;;;5.90;99.90;;;;;;5030160;28;20281;-49
2023/03/05 06:26:22;;;;;;;1.60;1.15;;;5.90;99.90;;;;;;5029694;28;20225;-49
2023/03/05 06:28:51;;;;;;;1.80;1.00;;;5.90;99.90;;;;;;5029779;28;20209;-48
2023/03/05 06:31:24;;;;;;;0.98;0.60;;;5.90;99.90;;;;;;5029657;28;20711;-48
2023/03/05 06:33:54;;;;;;;1.05;0.70;;;6.00;99.90;;;;;;5032082;28;20222;-48
2023/03/05 06:36:24;;;;;;;0.80;0.60;;;5.90;99.90;;;;;;5029055;28;20271;-48
2023/03/05 06:38:53;;;;;;;2.45;1.10;;;5.90;99.90;;;;;;5026140;28;20192;-47
2023/03/05 06:41:23;;;;;;;1.00;0.65;;;5.90;99.90;;;;;;5012750;28;20594;-48
2023/03/05 06:43:56;;;;;;;2.45;1.02;;;5.90;99.90;;;;;;5030131;28;20204;-48
2023/03/05 06:46:27;;;;;;;1.75;1.13;;;5.90;99.90;;;;;;5029673;28;20629;-48
2023/03/05 06:48:57;;;;;;;1.33;0.98;;;5.90;99.90;;;;;;5030264;28;20569;-49
2023/03/05 06:51:28;;;;;;;3.00;0.80;;;5.90;99.90;;;;;;5029253;28;20254;-49
2023/03/05 06:54:00;;;;;;;3.50;1.48;;;5.90;99.90;;;;;;5028197;28;20578;-47
2023/03/05 06:56:29;;;;;;;4.40;1.00;;;5.90;99.90;;;;;;5012733;28;20549;-47
2023/03/05 06:58:58;;;;;;;1.60;0.80;;;5.90;99.90;;;;;;5029493;28;20204;-49
2023/03/05 07:01:28;;;;;;;1.20;1.10;;;5.90;99.90;;;;;;5029173;28;20785;-49
2023/03/05 07:03:59;;;;;;;1.90;0.77;;;5.90;99.90;;;;;;5029725;28;20227;-51
2023/03/05 07:06:28;;;;;;;1.65;0.70;;;5.90;99.90;;;;;;5011948;28;20218;-48
2023/03/05 07:08:58;;;;;;;1.00;0.70;;;5.90;99.90;;;;;;5024430;28;20194;-48
2023/03/05 07:11:27;;;;;;;3.38;1.10;;;5.90;99.90;;;;;;5028401;28;20222;-48
2023/03/05 07:13:56;;;;;;;3.42;1.00;;;5.90;99.90;;;;;;5028245;28;20219;-48
2023/03/05 07:16:27;;;;;;;4.03;1.13;;;5.90;99.90;;;;;;5028085;28;20226;-49
2023/03/05 07:18:58;;;;;;;2.83;0.80;;;5.90;99.90;;;;;;5029769;28;20199;-49
2023/03/05 07:21:28;;;;;;;2.03;0.73;;;5.90;99.90;;;;;;5028134;28;20320;-48
2023/03/05 07:23:59;;;;;;;1.65;1.00;;;5.90;99.90;;;;;;5029688;28;20219;-49
2023/03/05 07:26:29;;;;;;;1.77;0.90;;;5.90;99.90;;;;;;5028819;28;20226;-47
2023/03/05 07:28:58;;;;;;;1.50;0.68;;;5.90;99.90;;;;;;5027840;28;20226;-47
2023/03/05 07:31:30;;;;;;;1.73;0.68;;;5.90;99.90;;;;;;5028566;28;20231;-49
2023/03/05 07:34:00;;;;;;;2.80;1.45;;;5.90;99.90;;;;;;5029427;28;20337;-50
2023/03/05 07:36:30;;;;;;;2.10;1.15;;;5.90;99.90;;;;;;5044744;28;20246;-48
2023/03/05 07:38:58;;;;;;;1.33;0.90;;;5.90;99.90;;;;;;5027748;28;20198;-48
2023/03/05 07:41:27;;;;;;;1.30;0.98;;;5.90;99.90;;;;;;5015879;28;20238;-49
2023/03/05 07:43:56;;;;;;;1.45;0.73;;;5.90;99.90;;;;;;5009073;28;20192;-48
2023/03/05 07:46:30;;;;;;;0.85;0.63;;;5.90;99.90;;;;;;5019313;28;20349;-47
2023/03/05 07:48:59;;;;;;;2.38;0.90;;;5.90;99.90;;;;;;5003680;28;20210;-49
2023/03/05 07:51:28;;;;;;;2.47;1.08;;;5.90;99.90;;;;;;5009924;28;20223;-49
2023/03/05 07:53:58;;;;;;;2.53;1.20;;;5.90;99.90;;;;;;5021960;28;20204;-48
2023/03/05 07:56:30;;;;;;;2.00;1.30;;;5.90;99.90;;;;;;5017475;28;20282;-48
2023/03/05 07:59:00;;;;;;;2.28;2.00;;;5.90;99.90;;;;;;5008000;28;20290;-50
2023/03/05 08:01:31;;;;;;;1.63;0.88;;;5.90;99.90;;;;;;4990697;28;20226;-47
2023/03/05 08:03:59;;;;;;;2.28;1.00;;;5.90;99.90;;;;;;5003064;28;20205;-48
2023/03/05 08:06:28;;;;;;;1.15;0.90;;;5.90;99.90;;;;;;5002622;28;20230;-47
2023/03/05 08:08:58;;;;;;;1.30;1.00;;;5.90;99.90;;;;;;5006453;28;20274;-49
2023/03/05 08:11:28;;;;;;;1.88;1.27;;;5.90;99.90;;;;;;5005910;28;20761;-50
2023/03/05 08:13:58;;;;;;;1.20;0.95;;;5.90;99.90;;;;;;5006624;28;20311;-47
2023/03/05 08:16:27;;;;;;;1.08;0.85;;;5.90;99.90;;;;;;5002962;28;20231;-49
2023/03/05 08:18:58;;;;;;;1.85;1.23;;;5.90;99.90;;;;;;5024057;28;20195;-49
2023/03/05 08:21:29;;;;;;;1.67;1.30;;;5.90;99.90;;;;;;5008625;28;20245;-49
2023/03/05 08:23:59;;;;;;;2.30;1.38;;;5.90;99.90;;;;;;5004940;28;20227;-49
2023/03/05 08:26:29;;;;;;;2.58;1.35;;;5.90;99.90;;;;;;5004645;28;20234;-48
2023/03/05 08:28:58;;;;;;;2.28;1.48;;;5.90;99.90;;;;;;5002651;28;20207;-49
2023/03/05 08:31:28;;;;;;;2.47;1.73;;;5.90;99.90;;;;;;4989262;28;20238;-48
2023/03/05 08:34:00;;;;;;;1.60;1.00;;;5.90;99.90;;;;;;5002406;28;20234;-49
2023/03/05 08:36:30;;;;;;;1.80;1.17;;;5.90;99.90;;;;;;5001916;28;20361;-48
2023/03/05 08:38:59;;;;;;;2.28;1.40;;;5.90;99.90;;;;;;5006200;28;20204;-48
2023/03/05 08:41:28;;;;;;;1.70;1.20;;;5.90;99.90;;;;;;5004932;28;20222;-49
2023/03/05 08:43:56;;;;;;;4.60;1.27;;;5.90;99.90;;;;;;4999466;28;20290;-47
2023/03/05 08:46:25;;;;;;;3.38;1.40;;;5.90;99.90;;;;;;4989806;28;20202;-49
2023/03/05 08:48:54;;;;;;;2.95;1.23;;;5.90;99.90;;;;;;5006972;28;20216;-49
2023/03/05 08:51:25;;;;;;;2.88;1.02;;;5.90;99.90;;;;;;5005664;28;20711;-47
2023/03/05 08:53:56;;;;;;;1.98;1.00;;;5.90;99.90;;;;;;5006130;28;20208;-51
2023/03/05 08:56:27;;;;;;;1.00;0.85;;;5.90;99.90;;;;;;5006512;28;20199;-49
2023/03/05 08:58:56;;;;;;;1.70;1.33;;;5.90;99.90;;;;;;5006973;28;20202;-49
2023/03/05 09:01:24;;;;;;;4.00;1.35;;;5.90;99.90;;;;;;5006996;28;20290;-47
2023/03/05 09:03:53;;;;;;;2.85;1.23;;;5.90;99.90;;;;;;5008935;28;20209;-48
2023/03/05 09:06:23;;;;;;;1.35;1.08;;;5.90;99.90;;;;;;5008379;28;20202;-48
2023/03/05 09:08:53;;;;;;;1.23;0.98;;;5.90;99.90;;;;;;5005907;28;20606;-50
2023/03/05 09:11:22;;;;;;;1.90;1.10;;;5.90;99.90;;;;;;5004300;28;20214;-48
2023/03/05 09:13:50;;;;;;;1.98;0.93;;;5.90;99.90;;;;;;5003544;28;20552;-49
2023/03/05 09:16:19;;;;;;;2.28;1.48;;;5.90;99.90;;;;;;5004814;28;20512;-49
2023/03/05 09:18:48;;;;;;;1.98;1.00;;;5.90;99.90;;;;;;5000346;28;20195;-49
2023/03/05 09:21:18;;;;;;;5.75;1.13;;;5.90;99.90;;;;;;5002817;28;20222;-48
2023/03/05 09:23:48;;;;;;;3.88;1.75;;;5.90;99.90;;;;;;4996522;28;20188;-48
2023/03/05 09:26:18;;;;;;;4.03;1.45;;;5.90;99.90;;;;;;4998046;28;20196;-50
2023/03/05 09:28:48;;;;;;;1.55;0.77;;;5.90;99.90;;;;;;4997240;28;20251;-49
2023/03/05 09:31:16;;;;;;;1.70;1.00;;;5.90;99.90;;;;;;5001710;28;20227;-48
2023/03/05 09:33:47;;;;;;;1.15;0.80;;;5.90;99.90;;;;;;5001571;28;20201;-49
2023/03/05 09:36:20;;;;;;;2.55;1.08;;;5.90;99.90;;;;;;5005596;28;20200;-49
2023/03/05 09:38:50;;;;;;;1.38;0.77;;;5.90;99.90;;;;;;4998687;28;20201;-48
2023/03/05 09:41:29;;;;;;;2.13;0.95;;;5.90;99.90;;;;;;5029269;28;20229;-48
2023/03/05 09:44:09;;;;;;;2.55;1.50;;;5.90;99.90;;;;;;5012751;28;20598;-49
2023/03/05 09:46:47;;;;;;;2.88;1.60;;;5.90;99.90;;;;;;5031926;28;20806;-49
2023/03/05 09:49:21;;;;;;;2.88;1.40;;;6.00;99.90;;;;;;5013572;28;20194;-48
2023/03/05 09:51:54;;;;;;;1.65;1.05;;;5.90;99.90;;;;;;5033535;28;20227;-49
2023/03/05 09:54:39;;;;;;;2.15;0.90;;;5.90;99.90;;;;;;5037238;28;20187;-48
2023/03/05 09:57:16;;;;;;;2.05;1.00;;;5.90;99.90;;;;;;5031571;28;20208;-48
2023/03/05 09:59:50;;;;;;;2.97;1.30;;;5.90;99.90;;;;;;5041126;28;20750;-51
2023/03/05 10:02:23;;;;;;;2.50;1.17;;;5.90;99.90;;;;;;5026481;28;20327;-48
2023/03/05 10:04:57;;;;;;;2.05;1.02;;;5.90;99.90;;;;;;5022393;28;20199;-48
2023/03/05 10:07:30;;;;;;;2.17;1.25;;;5.90;99.90;;;;;;5025263;28;20217;-48
2023/03/05 10:10:02;;;;;;;2.10;0.90;;;5.90;99.90;;;;;;5019941;28;20217;-50
2023/03/05 10:12:41;;;;;;;4.15;1.08;;;5.90;99.90;;;;;;5023411;28;20222;-48
2023/03/05 10:15:13;;;;;;;1.35;0.80;;;5.90;99.90;;;;;;5024043;28;20209;-48
2023/03/05 10:18:06;;;;;;;1.40;1.00;;;5.90;99.90;;;;;;5008280;28;20215;-47
2023/03/05 10:20:52;;;;;;;2.85;1.08;;;5.90;99.90;;;;;;5016323;28;20191;-48
2023/03/05 10:23:33;;;;;;;2.38;0.90;;;5.90;99.90;;;;;;5021054;28;20198;-49
2023/03/05 10:26:13;;;;;;;3.35;1.33;;;5.90;99.90;;;;;;5009525;28;20253;-47
2023/03/05 10:28:55;;;;;;;3.28;1.10;;;5.90;99.90;;;;;;5020228;28;20201;-48
2023/03/05 10:31:40;;;;;;;3.58;1.92;;;5.90;99.90;;;;;;5022384;28;20786;-47
2023/03/05 10:34:32;;;;;;;2.65;1.70;;;5.90;99.90;;;;;;5022576;28;20206;-50
2023/03/05 10:37:33;;;;;;;5.20;3.33;;;5.90;99.90;;;;;;4998307;28;20450;-48
2023/03/05 10:40:11;;;;;;;2.80;2.50;;;6.00;99.90;;;;;;5022474;28;20202;-48
2023/03/05 10:42:48;;;;;;;4.30;2.85;;;5.90;99.90;;;;;;5023928;28;20593;-48
2023/03/05 10:45:20;;;;;;;3.03;2.60;;;5.90;99.90;;;;;;5020612;28;20214;-48
2023/03/05 10:47:52;;;;;;;4.00;2.53;;;5.90;99.90;;;;;;5037035;28;20681;-48
2023/03/05 10:50:23;;;;;;;4.50;2.55;;;5.90;99.90;;;;;;5021936;28;20200;-47
2023/03/05 10:53:06;;;;;;;4.38;2.78;;;5.90;99.90;;;;;;5020860;28;20729;-50
2023/03/05 10:55:34;;;;;;;2.75;2.10;;;5.90;99.90;;;;;;5017936;28;20288;-48
2023/03/05 10:58:11;;;;;;;3.17;2.13;;;5.90;99.90;;;;;;5024596;28;20202;-47
2023/03/05 11:00:57;;;;;;;2.03;1.75;;;5.90;99.90;;;;;;5028383;28;20212;-48
2023/03/05 11:03:26;;;;;;;2.78;2.20;;;5.90;99.90;;;;;;5029180;28;20202;-48
2023/03/05 11:06:01;;;;;;;3.53;1.92;;;5.90;99.90;;;;;;5023490;28;20230;-47
2023/03/05 11:08:32;;;;;;;3.92;2.30;;;5.90;99.90;;;;;;5026823;28;20222;-48
2023/03/05 11:11:16;;;;;;;3.67;2.97;;;5.90;99.90;;;;;;5024029;28;20232;-48
2023/03/05 11:13:55;;;;;;;2.78;2.22;;;6.00;99.90;;;;;;5014243;28;20975;-47
2023/03/05 11:16:26;;;;;;;2.97;2.50;;;5.90;99.90;;;;;;5021238;28;20597;-48
2023/03/05 11:19:17;;;;;;;3.97;3.00;;;5.90;99.90;;;;;;5040146;28;20698;-47
2023/03/05 11:21:47;;;;;;;3.22;2.60;;;6.00;99.90;;;;;;5016188;28;20760;-48
2023/03/05 11:24:18;;;;;;;3.03;2.75;;;5.90;99.90;;;;;;5021362;28;20195;-47
2023/03/05 11:26:48;;;;;;;3.45;1.90;;;5.90;99.90;;;;;;5028301;28;20588;-47
2023/03/05 11:29:22;;;;;;;3.28;2.47;;;5.90;99.90;;;;;;5022428;28;20653;-49
2023/03/05 11:31:52;;;;;;;2.67;2.08;;;6.00;99.90;;;;;;5029535;28;20229;-48
2023/03/05 11:34:30;;;;;;;2.53;1.83;;;6.00;99.90;;;;;;5023799;28;20191;-51
2023/03/05 11:37:04;;;;;;;3.50;2.60;;;6.00;99.90;;;;;;5027176;28;20230;-47
2023/03/05 11:39:37;;;;;;;3.65;2.63;;;5.90;99.90;;;;;;5023638;28;20252;-48
2023/03/05 11:42:12;;;;;;;4.18;2.28;;;6.00;99.90;;;;;;5031100;28;20276;-50
2023/03/05 11:44:47;;;;;;;3.45;2.30;;;6.00;99.90;;;;;;5023623;28;20225;-47
2023/03/05 11:47:28;;;;;;;2.95;2.42;;;5.90;99.90;;;;;;5016676;28;20217;-49
2023/03/05 11:50:10;;;;;;;2.15;1.95;;;5.90;99.90;;;;;;5022419;28;20201;-48
2023/03/05 11:52:45;;;;;;;7.90;2.20;;;5.90;99.90;;;;;;5021933;28;20268;-48
2023/03/05 11:55:17;;;;;;;2.40;1.77;;;5.90;99.90;;;;;;5004118;28;20552;-48
2023/03/05 11:57:57;;;;;;;2.63;2.22;;;6.00;99.90;;;;;;5039898;28;20225;-48
2023/03/05 12:00:29;;;;;;;2.70;2.20;;;5.90;99.90;;;;;;5020220;28;20202;-48
2023/03/05 12:03:02;;;;;;;2.28;1.88;;;6.00;99.90;;;;;;5024021;28;20218;-48
2023/03/05 12:05:32;;;;;;;6.13;2.60;;;6.00;99.90;;;;;;5023849;28;20274;-49
2023/03/05 12:08:04;;;;;;;2.95;2.75;;;6.00;99.90;;;;;;5027328;28;20231;-48
2023/03/05 12:10:33;;;;;;;6.47;2.30;;;6.00;99.90;;;;;;5040026;28;20234;-47
2023/03/05 12:13:09;;;;;;;2.60;2.10;;;6.00;99.90;;;;;;5029955;28;20215;-48
2023/03/05 12:15:50;;;;;;;2.53;2.30;;;6.00;99.90;;;;;;5039313;28;20279;-48
2023/03/05 12:18:26;;;;;;;4.03;2.05;;;6.00;99.90;;;;;;5026681;28;20715;-49
2023/03/05 12:21:04;;;;;;;2.55;2.33;;;6.00;99.90;;;;;;5024441;28;20229;-48
2023/03/05 12:23:47;;;;;;;2.80;2.28;;;6.00;99.90;;;;;;5020206;28;20573;-48
2023/03/05 12:26:16;;;;;;;3.10;2.33;;;5.90;99.90;;;;;;5047244;28;20192;-49
2023/03/05 12:28:58;;;;;;;3.33;2.20;;;6.00;99.90;;;;;;5024706;28;20289;-48
2023/03/05 12:31:38;;;;;;;4.07;2.90;;;6.00;99.90;;;;;;5027406;28;20232;-48
2023/03/05 12:34:50;;;;;;;2.75;1.90;;;6.00;99.90;;;;;;5021613;28;20221;-47
2023/03/05 12:37:56;;;;;;;2.65;2.15;;;6.00;99.90;;;;;;4984438;28;20223;-49
2023/03/05 12:40:26;;;;;;;2.03;1.83;;;6.00;99.90;;;;;;4980561;28;20203;-50
2023/03/05 12:42:59;;;;;;;2.53;1.92;;;6.00;99.90;;;;;;5009724;28;20218;-49
2023/03/05 12:45:36;;;;;;;4.60;2.28;;;6.00;99.90;;;;;;5025380;28;20199;-48
2023/03/05 12:48:44;;;;;;;2.13;1.92;;;6.00;99.90;;;;;;5031122;28;20217;-49
2023/03/05 12:51:15;;;;;;;4.65;2.67;;;6.00;99.90;;;;;;5033541;28;20221;-48
2023/03/05 12:53:44;;;;;;;3.05;2.05;;;6.00;99.90;;;;;;5037727;28;20715;-49
2023/03/05 12:56:20;;;;;;;2.70;2.10;;;6.00;99.90;;;;;;5040378;28;20220;-53
2023/03/05 12:58:52;;;;;;;3.47;2.17;;;6.00;99.90;;;;;;5035260;28;20201;-47
2023/03/05 13:01:34;;;;;;;2.42;2.05;;;6.00;99.90;;;;;;5033928;28;20218;-47
2023/03/05 13:04:09;;;;;;;2.97;2.08;;;6.00;99.90;;;;;;5032470;28;20206;-48
2023/03/05 13:06:39;;;;;;;2.28;2.05;;;6.00;99.90;;;;;;5041841;28;20297;-50
2023/03/05 13:09:17;;;;;;;2.63;2.40;;;6.00;99.90;;;;;;5033416;28;20738;-49
2023/03/05 13:11:48;;;;;;;2.40;1.75;;;6.00;99.90;;;;;;5022974;28;20218;-48
2023/03/05 13:14:30;;;;;;;2.13;1.88;;;6.00;99.90;;;;;;5024484;28;20277;-48
2023/03/05 13:16:59;;;;;;;3.17;2.70;;;6.00;99.90;;;;;;5020739;28;20227;-48
2023/03/05 13:19:34;;;;;;;3.13;2.15;;;6.00;99.90;;;;;;5024212;28;20209;-48
2023/03/05 13:22:10;;;;;;;2.58;1.83;;;6.00;99.90;;;;;;5026534;28;20230;-48